Time,TemperatureF,DewpointF,PressureIn,WindDirection,WindDirectionDegrees,WindSpeedMPH,WindSpeedGustMPH,Humidity,HourlyPrecipIn,Conditions,Clouds,dailyrainin,SolarRadiationWatts/m^2,SoftwareType,DateUTC
2013-03-25 00:03:00,45.0,29.0,-100.00,NNW,332,10.0,20.0,54,0.00,,,0.99,0.000000,,2013-03-25 05:03:00,
2013-03-25 00:12:00,45.0,29.0,-100.00,NNW,332,10.0,20.0,54,0.00,,,0.99,0.000000,,2013-03-25 05:12:00,
2013-03-25 00:22:00,45.0,29.0,-100.00,NNW,332,10.0,20.0,54,0.00,,,0.99,0.000000,,2013-03-25 05:22:00,
2013-03-25 00:53:00,43.0,27.0,-100.00,NNW,334,5.0,20.0,52,0.00,,,0.78,0.000000,,2013-03-25 05:53:00,
2013-03-25 01:02:00,43.0,27.0,-100.00,NNW,334,5.0,20.0,52,0.00,,,0.78,0.000000,,2013-03-25 06:02:00,
2013-03-25 01:12:00,43.0,27.0,-100.00,NNW,334,5.0,20.0,52,0.00,,,0.78,0.000000,,2013-03-25 06:12:00,
2013-03-25 01:22:00,43.0,27.0,-100.00,NNW,334,5.0,20.0,52,0.00,,,0.78,0.000000,,2013-03-25 06:22:00,
2013-03-25 01:53:00,43.0,27.0,-100.00,NW,320,8.0,17.0,52,0.00,,,0.33,0.000000,,2013-03-25 06:53:00,
2013-03-25 02:02:00,43.0,27.0,-100.00,NW,320,8.0,17.0,52,0.00,,,0.33,0.000000,,2013-03-25 07:02:00,
2013-03-25 02:13:00,43.0,27.0,-100.00,NW,320,8.0,17.0,52,0.00,,,0.33,0.000000,,2013-03-25 07:13:00,
2013-03-25 02:22:00,43.0,27.0,-100.00,NW,320,8.0,17.0,52,0.00,,,0.33,0.000000,,2013-03-25 07:22:00,
2013-03-25 02:53:00,43.0,28.0,-100.00,NNW,338,9.0,19.0,54,0.00,,,0.05,0.000000,,2013-03-25 07:53:00,
2013-03-25 03:03:00,43.0,28.0,-100.00,NNW,338,9.0,19.0,54,0.00,,,0.05,0.000000,,2013-03-25 08:03:00,
2013-03-25 03:12:00,43.0,28.0,-100.00,NNW,338,9.0,19.0,54,0.00,,,0.05,0.000000,,2013-03-25 08:12:00,
2013-03-25 03:23:00,43.0,28.0,-100.00,NNW,338,9.0,19.0,54,0.00,,,0.05,0.000000,,2013-03-25 08:23:00,
2013-03-25 03:52:00,42.0,28.0,-100.00,NW,322,6.0,16.0,57,0.00,,,0.04,0.000000,,2013-03-25 08:52:00,
2013-03-25 04:02:00,42.0,28.0,-100.00,NW,322,6.0,16.0,57,0.00,,,0.04,0.000000,,2013-03-25 09:02:00,
2013-03-25 04:13:00,42.0,28.0,-100.00,NW,322,6.0,16.0,57,0.00,,,0.04,0.000000,,2013-03-25 09:13:00,
2013-03-25 04:22:00,42.0,28.0,-100.00,NW,322,6.0,16.0,57,0.00,,,0.04,0.000000,,2013-03-25 09:22:00,
2013-03-25 04:53:00,40.0,24.0,-100.00,NNW,334,10.0,22.0,52,0.00,,,0.03,0.000000,,2013-03-25 09:53:00,
2013-03-25 05:03:00,40.0,24.0,-100.00,NNW,334,10.0,22.0,52,0.00,,,0.03,0.000000,,2013-03-25 10:03:00,
2013-03-25 05:12:00,40.0,24.0,-100.00,NNW,334,10.0,22.0,52,0.00,,,0.03,0.000000,,2013-03-25 10:12:00,
2013-03-25 05:23:00,40.0,24.0,-100.00,NNW,334,10.0,22.0,52,0.00,,,0.03,0.000000,,2013-03-25 10:23:00,
2013-03-25 05:54:00,38.0,22.0,-100.00,NNW,330,8.0,20.0,51,0.00,,,0.01,0.000000,,2013-03-25 10:54:00,
2013-03-25 06:03:00,38.0,22.0,-100.00,NNW,330,8.0,20.0,51,0.00,,,0.01,0.000000,,2013-03-25 11:03:00,
2013-03-25 06:12:00,38.0,22.0,-100.00,NNW,330,8.0,20.0,51,0.00,,,0.01,0.000000,,2013-03-25 11:12:00,
2013-03-25 06:23:00,38.0,22.0,-100.00,NNW,330,8.0,20.0,51,0.00,,,0.01,0.000000,,2013-03-25 11:23:00,
2013-03-25 06:53:00,37.0,22.0,-100.00,NNW,327,5.0,13.0,54,0.00,,,0.00,0.000000,,2013-03-25 11:53:00,
2013-03-25 07:03:00,37.0,22.0,-100.00,NNW,327,5.0,13.0,54,0.00,,,0.00,0.000000,,2013-03-25 12:03:00,
2013-03-25 07:13:00,37.0,22.0,-100.00,NNW,327,5.0,13.0,54,0.00,,,0.00,0.000000,,2013-03-25 12:13:00,
2013-03-25 07:23:00,37.0,22.0,-100.00,NNW,327,5.0,13.0,54,0.00,,,0.00,0.000000,,2013-03-25 12:23:00,
2013-03-25 07:54:00,37.0,24.0,-100.00,NW,323,7.0,14.0,58,0.00,,,0.00,0.000000,,2013-03-25 12:54:00,
2013-03-25 08:03:00,37.0,24.0,-100.00,NW,323,7.0,14.0,58,0.00,,,0.00,0.000000,,2013-03-25 13:03:00,
2013-03-25 08:13:00,37.0,24.0,-100.00,NW,323,7.0,14.0,58,0.00,,,0.00,0.000000,,2013-03-25 13:13:00,
2013-03-25 08:23:00,37.0,24.0,-100.00,NW,323,7.0,14.0,58,0.00,,,0.00,0.000000,,2013-03-25 13:23:00,
2013-03-25 08:53:00,40.0,24.0,-100.00,NW,317,8.0,16.0,52,0.00,,,0.00,0.000000,,2013-03-25 13:53:00,
2013-03-25 09:03:00,40.0,24.0,-100.00,NW,317,8.0,16.0,52,0.00,,,0.00,0.000000,,2013-03-25 14:03:00,
2013-03-25 09:12:00,40.0,24.0,-100.00,NW,317,8.0,16.0,52,0.00,,,0.00,0.000000,,2013-03-25 14:12:00,
2013-03-25 09:22:00,40.0,24.0,-100.00,NW,317,8.0,16.0,52,0.00,,,0.00,0.000000,,2013-03-25 14:22:00,
2013-03-25 09:53:00,42.0,25.0,-100.00,NW,321,8.0,17.0,50,0.00,,,0.00,0.000000,,2013-03-25 14:53:00,
2013-03-25 10:03:00,42.0,25.0,-100.00,NW,321,8.0,17.0,50,0.00,,,0.00,0.000000,,2013-03-25 15:03:00,
2013-03-25 10:13:00,42.0,25.0,-100.00,NW,321,8.0,17.0,50,0.00,,,0.00,0.000000,,2013-03-25 15:13:00,
2013-03-25 10:23:00,42.0,25.0,-100.00,NW,321,8.0,17.0,50,0.00,,,0.00,0.000000,,2013-03-25 15:23:00,
2013-03-25 10:54:00,44.0,23.0,-100.00,NNW,329,10.0,20.0,44,0.00,,,0.00,0.000000,,2013-03-25 15:54:00,
2013-03-25 11:03:00,44.0,23.0,-100.00,NNW,329,10.0,20.0,44,0.00,,,0.00,0.000000,,2013-03-25 16:03:00,
2013-03-25 11:13:00,44.0,23.0,-100.00,NNW,329,10.0,20.0,44,0.00,,,0.00,0.000000,,2013-03-25 16:13:00,
2013-03-25 11:23:00,44.0,23.0,-100.00,NNW,329,10.0,20.0,44,0.00,,,0.00,0.000000,,2013-03-25 16:23:00,
2013-03-25 11:53:00,47.0,23.0,-100.00,NNW,334,8.0,19.0,38,0.00,,,0.00,0.000000,,2013-03-25 16:53:00,
2013-03-25 12:03:00,47.0,23.0,-100.00,NNW,334,8.0,19.0,38,0.00,,,0.00,0.000000,,2013-03-25 17:03:00,
2013-03-25 12:13:00,47.0,23.0,-100.00,NNW,334,8.0,19.0,38,0.00,,,0.00,0.000000,,2013-03-25 17:13:00,
2013-03-25 12:24:00,47.0,23.0,-100.00,NNW,334,8.0,19.0,38,0.00,,,0.00,0.000000,,2013-03-25 17:24:00,
2013-03-25 12:53:00,49.0,24.0,-100.00,NW,305,9.0,20.0,37,0.00,,,0.00,0.000000,,2013-03-25 17:53:00,
2013-03-25 13:04:00,49.0,24.0,-100.00,NW,305,9.0,20.0,37,0.00,,,0.00,0.000000,,2013-03-25 18:04:00,
2013-03-25 13:13:00,49.0,24.0,-100.00,NW,305,9.0,20.0,37,0.00,,,0.00,0.000000,,2013-03-25 18:13:00,
2013-03-25 13:23:00,49.0,24.0,-100.00,NW,305,9.0,20.0,37,0.00,,,0.00,0.000000,,2013-03-25 18:23:00,
2013-03-25 13:53:00,50.0,21.0,-100.00,NW,319,12.0,22.0,31,0.00,,,0.00,0.000000,,2013-03-25 18:53:00,
2013-03-25 14:03:00,50.0,21.0,-100.00,NW,319,12.0,22.0,31,0.00,,,0.00,0.000000,,2013-03-25 19:03:00,
2013-03-25 14:13:00,50.0,21.0,-100.00,NW,319,12.0,22.0,31,0.00,,,0.00,0.000000,,2013-03-25 19:13:00,
2013-03-25 14:23:00,50.0,21.0,-100.00,NW,319,12.0,22.0,31,0.00,,,0.00,0.000000,,2013-03-25 19:23:00,
2013-03-25 14:53:00,52.0,20.0,-100.00,NW,315,9.0,21.0,28,0.00,,,0.00,0.000000,,2013-03-25 19:53:00,
2013-03-25 15:02:00,52.0,20.0,-100.00,NW,315,9.0,21.0,28,0.00,,,0.00,0.000000,,2013-03-25 20:02:00,
2013-03-25 15:12:00,52.0,20.0,-100.00,NW,315,9.0,21.0,28,0.00,,,0.00,0.000000,,2013-03-25 20:12:00,
2013-03-25 15:22:00,52.0,20.0,-100.00,NW,315,9.0,21.0,28,0.00,,,0.00,0.000000,,2013-03-25 20:22:00,
2013-03-25 15:52:00,53.0,20.0,-100.00,NW,323,9.0,21.0,27,0.00,,,0.00,0.000000,,2013-03-25 20:52:00,
2013-03-25 16:03:00,53.0,20.0,-100.00,NW,323,9.0,21.0,27,0.00,,,0.00,0.000000,,2013-03-25 21:03:00,
2013-03-25 16:13:00,53.0,20.0,-100.00,NW,323,9.0,21.0,27,0.00,,,0.00,0.000000,,2013-03-25 21:13:00,
2013-03-25 16:22:00,53.0,20.0,-100.00,NW,323,9.0,21.0,27,0.00,,,0.00,0.000000,,2013-03-25 21:22:00,
2013-03-25 16:52:00,53.0,20.0,-100.00,NNW,342,8.0,22.0,27,0.00,,,0.00,0.000000,,2013-03-25 21:52:00,
2013-03-25 17:03:00,53.0,20.0,-100.00,NNW,342,8.0,22.0,27,0.00,,,0.00,0.000000,,2013-03-25 22:03:00,
2013-03-25 17:13:00,53.0,20.0,-100.00,NNW,342,8.0,22.0,27,0.00,,,0.00,0.000000,,2013-03-25 22:13:00,
2013-03-25 17:23:00,53.0,20.0,-100.00,NNW,342,8.0,22.0,27,0.00,,,0.00,0.000000,,2013-03-25 22:23:00,
2013-03-25 17:53:00,51.0,18.0,-100.00,NW,318,10.0,24.0,27,0.00,,,0.00,0.000000,,2013-03-25 22:53:00,
2013-03-25 18:03:00,51.0,18.0,-100.00,NW,318,10.0,24.0,27,0.00,,,0.00,0.000000,,2013-03-25 23:03:00,
2013-03-25 18:12:00,51.0,18.0,-100.00,NW,318,10.0,24.0,27,0.00,,,0.00,0.000000,,2013-03-25 23:12:00,
2013-03-25 18:23:00,51.0,18.0,-100.00,NW,318,10.0,24.0,27,0.00,,,0.00,0.000000,,2013-03-25 23:23:00,
2013-03-25 18:53:00,48.0,17.0,-100.00,NNW,341,10.0,20.0,29,0.00,,,0.00,0.000000,,2013-03-25 23:53:00,
2013-03-25 19:02:00,48.0,17.0,-100.00,NNW,341,10.0,20.0,29,0.00,,,0.00,0.000000,,2013-03-26 00:02:00,
2013-03-25 19:12:00,48.0,17.0,-100.00,NNW,341,10.0,20.0,29,0.00,,,0.00,0.000000,,2013-03-26 00:12:00,
2013-03-25 19:22:00,48.0,17.0,-100.00,NNW,341,10.0,20.0,29,0.00,,,0.00,0.000000,,2013-03-26 00:22:00,
2013-03-25 19:52:00,45.0,20.0,-100.00,North,351,7.0,20.0,36,0.00,,,0.00,0.000000,,2013-03-26 00:52:00,
2013-03-25 20:02:00,45.0,20.0,-100.00,North,351,7.0,20.0,36,0.00,,,0.00,0.000000,,2013-03-26 01:02:00,
2013-03-25 20:12:00,45.0,20.0,-100.00,North,351,7.0,20.0,36,0.00,,,0.00,0.000000,,2013-03-26 01:12:00,
2013-03-25 20:23:00,45.0,20.0,-100.00,North,351,7.0,20.0,36,0.00,,,0.00,0.000000,,2013-03-26 01:23:00,
2013-03-25 20:53:00,43.0,20.0,-100.00,North,352,9.0,20.0,40,0.00,,,0.00,0.000000,,2013-03-26 01:53:00,
2013-03-25 21:02:00,43.0,20.0,-100.00,North,352,9.0,20.0,40,0.00,,,0.00,0.000000,,2013-03-26 02:02:00,
2013-03-25 21:12:00,43.0,20.0,-100.00,North,352,9.0,20.0,40,0.00,,,0.00,0.000000,,2013-03-26 02:12:00,
2013-03-25 21:23:00,43.0,20.0,-100.00,North,352,9.0,20.0,40,0.00,,,0.00,0.000000,,2013-03-26 02:23:00,
2013-03-25 21:52:00,41.0,18.0,-100.00,NNW,346,8.0,22.0,39,0.00,,,0.00,0.000000,,2013-03-26 02:52:00,
2013-03-25 22:02:00,41.0,18.0,-100.00,NNW,346,8.0,22.0,39,0.00,,,0.00,0.000000,,2013-03-26 03:02:00,
2013-03-25 22:12:00,41.0,18.0,-100.00,NNW,346,8.0,22.0,39,0.00,,,0.00,0.000000,,2013-03-26 03:12:00,
2013-03-25 22:22:00,41.0,18.0,-100.00,NNW,346,8.0,22.0,39,0.00,,,0.00,0.000000,,2013-03-26 03:22:00,
2013-03-25 22:53:00,39.0,18.0,-100.00,NNW,346,6.0,16.0,42,0.00,,,0.00,0.000000,,2013-03-26 03:53:00,
2013-03-25 23:03:00,39.0,18.0,-100.00,NNW,346,6.0,16.0,42,0.00,,,0.00,0.000000,,2013-03-26 04:03:00,
2013-03-25 23:13:00,39.0,18.0,-100.00,NNW,346,6.0,16.0,42,0.00,,,0.00,0.000000,,2013-03-26 04:13:00,
2013-03-25 23:23:00,39.0,18.0,-100.00,NNW,346,6.0,16.0,42,0.00,,,0.00,0.000000,,2013-03-26 04:23:00,
2013-03-25 23:53:00,38.0,20.0,-100.00,NNW,339,6.0,11.0,47,0.00,,,0.00,0.000000,,2013-03-26 04:53:00,